Time;durP1;ratioP1;P1;durP2;ratioP2;P2;SDS_P1;SDS_P2;PMS_P1;PMS_P2;Temp;Humidity;BMP_temperature;BMP_pressure;BME280_temperature;BME280_humidity;BME280_pressure;Samples;Min_cycle;Max_cycle;Signal;HPM_P1;HPM_P2
2023/12/10 00:00:11;;;;;;;11.70;10.40;;;;;;;24.10;20.03;100820.01;104686;1300;68320;-87
2023/12/10 00:02:41;;;;;;;12.30;11.00;;;;;;;24.10;20.11;100820.05;104719;1307;67610;-90
2023/12/10 00:07:59;;;;;;;11.70;10.50;;;;;;;24.11;19.96;100823.80;105074;1305;81537;-89
2023/12/10 00:10:30;;;;;;;12.20;11.00;;;;;;;24.11;20.13;100825.45;104736;1307;68285;-89
2023/12/10 00:12:58;;;;;;;11.40;10.20;;;;;;;24.10;20.21;100828.13;104778;1307;67597;-89
2023/12/10 00:15:31;;;;;;;11.80;10.60;;;;;;;24.11;20.14;100830.74;104793;1308;67625;-89
2023/12/10 00:18:06;;;;;;;12.30;10.60;;;;;;;24.11;20.22;100835.16;105016;1302;67636;31
2023/12/10 00:20:35;;;;;;;12.30;11.00;;;;;;;24.12;20.09;100830.68;105059;1308;74482;-89
2023/12/10 00:25:54;;;;;;;12.10;10.90;;;;;;;24.11;20.12;100829.05;105058;1304;67725;-89
2023/12/10 00:28:22;;;;;;;11.80;10.60;;;;;;;24.11;20.09;100830.23;104848;1308;67297;-89
2023/12/10 00:33:41;;;;;;;12.60;11.20;;;;;;;24.12;19.97;100824.16;105067;1305;72347;-90
2023/12/10 00:36:15;;;;;;;12.00;10.80;;;;;;;24.12;19.93;100821.13;103175;1299;5558936;-89
2023/12/10 00:45:12;;;;;;;11.40;10.20;;;;;;;24.11;20.08;100809.56;105039;1308;68068;-89
2023/12/10 00:51:09;;;;;;;11.40;10.20;;;;;;;24.11;19.99;100796.91;105075;1299;72410;31
2023/12/10 00:57:06;;;;;;;12.30;11.00;;;;;;;24.11;19.93;100789.77;104976;1299;67458;31
2023/12/10 00:59:33;;;;;;;11.40;10.20;;;;;;;24.12;19.97;100789.25;105160;1306;67011;-89
2023/12/10 01:02:11;;;;;;;13.90;11.60;;;;;;;24.12;20.13;100784.63;104920;1307;67817;-89
2023/12/10 01:04:39;;;;;;;12.10;10.90;;;;;;;24.12;20.02;100776.86;104885;1307;75134;-89
2023/12/10 01:09:57;;;;;;;11.70;10.50;;;;;;;24.13;20.19;100757.89;105093;1305;67738;-89
2023/12/10 01:15:10;;;;;;;11.30;10.10;;;;;;;24.13;20.14;100760.81;104897;1308;66966;-89
2023/12/10 01:17:51;;;;;;;12.50;11.10;;;;;;;24.13;20.15;100759.21;104925;1307;74534;-89
2023/12/10 01:21:02;;;;;;;11.70;10.10;;;;;;;24.13;20.13;100756.23;105072;1306;68080;31
2023/12/10 01:29:50;;;;;;;11.80;10.50;;;;;;;24.14;20.10;100751.61;105078;1299;67648;31
2023/12/10 01:32:21;;;;;;;12.10;10.60;;;;;;;24.14;20.03;100751.34;104727;1311;74641;-89
2023/12/10 01:34:47;;;;;;;11.30;10.10;;;;;;;24.14;20.00;100747.34;104843;1307;67625;-90
2023/12/10 01:37:18;;;;;;;12.20;10.90;;;;;;;24.15;20.13;100741.31;104877;1306;67319;-90
2023/12/10 01:39:52;;;;;;;11.10;9.90;;;;;;;24.16;20.04;100746.50;105148;1305;67318;-89
2023/12/10 01:42:33;;;;;;;12.30;10.70;;;;;;;24.16;20.03;100749.44;104706;1307;66890;-89
2023/12/10 01:48:09;;;;;;;11.50;10.30;;;;;;;24.15;19.97;100741.93;104985;1299;68027;-90
2023/12/10 01:56:54;;;;;;;10.70;9.60;;;;;;;24.15;20.10;100735.70;104882;1308;67705;31
2023/12/10 01:59:50;;;;;;;11.40;10.20;;;;;;;24.15;20.01;100729.07;105079;1300;72403;-89
2023/12/10 02:02:17;;;;;;;11.60;10.40;;;;;;;24.16;20.00;100727.16;104714;1308;75671;-89
2023/12/10 02:07:36;;;;;;;11.90;10.70;;;;;;;24.16;19.81;100716.98;105045;1304;67924;-90
2023/12/10 02:10:09;;;;;;;11.60;10.30;;;;;;;24.17;19.99;100717.19;104871;1307;67173;-90
2023/12/10 02:12:43;;;;;;;12.30;11.00;;;;;;;24.18;20.04;100716.56;104889;1307;74241;-88
2023/12/10 02:18:03;;;;;;;12.90;11.30;;;;;;;24.18;19.96;100710.77;104980;1305;67891;-89
2023/12/10 02:26:35;;;;;;;11.80;10.40;;;;;;;24.18;20.07;100703.35;105049;1299;72391;-89
2023/12/10 02:29:05;;;;;;;11.90;10.40;;;;;;;24.19;20.00;100699.62;104962;1308;75095;-89
2023/12/10 02:34:29;;;;;;;12.50;11.00;;;;;;;24.19;20.00;100692.08;105034;1307;67144;-89
2023/12/10 02:42:40;;;;;;;12.30;10.70;;;;;;;24.19;19.98;100699.89;105040;1304;67914;-89
2023/12/10 02:47:58;;;;;;;11.10;10.00;;;;;;;24.17;19.88;100710.41;105000;1305;67673;-90
2023/12/10 02:50:33;;;;;;;11.60;10.40;;;;;;;24.18;20.04;100706.59;105297;1299;66917;31
2023/12/10 02:52:59;;;;;;;11.90;10.60;;;;;;;24.19;20.00;100707.92;104863;1311;74631;-89
2023/12/10 02:55:26;;;;;;;12.30;11.00;;;;;;;24.20;19.95;100710.59;104652;1308;67217;-90
2023/12/10 03:00:56;;;;;;;12.60;11.30;;;;;;;24.20;20.05;100702.14;105048;1305;67176;-89
2023/12/10 03:06:29;;;;;;;11.80;10.50;;;;;;;24.21;19.84;100701.77;105072;1307;72403;-89
2023/12/10 03:12:10;;;;;;;12.60;10.60;;;;;;;24.21;19.81;100706.00;105019;1305;67698;-90
2023/12/10 03:14:48;;;;;;;12.20;10.90;;;;;;;24.21;19.89;100698.13;104902;1304;67681;-90
2023/12/10 03:23:23;;;;;;;13.00;11.00;;;;;;;24.21;19.94;100692.31;105025;1299;67852;31
2023/12/10 03:25:51;;;;;;;11.80;10.50;;;;;;;24.21;19.74;100690.52;104671;1308;67735;-90
2023/12/10 03:28:21;;;;;;;13.40;11.30;;;;;;;24.22;19.87;100693.43;104656;1308;67659;-90
2023/12/10 03:30:54;;;;;;;12.10;10.80;;;;;;;24.22;19.88;100693.02;104815;1308;67662;-90
2023/12/10 03:33:35;;;;;;;11.40;9.90;;;;;;;24.22;19.91;100691.58;105069;1305;74278;-89
2023/12/10 03:38:55;;;;;;;11.60;10.40;;;;;;;24.22;19.96;100696.36;104967;1303;67680;-90
2023/12/10 03:41:25;;;;;;;11.60;10.40;;;;;;;24.22;19.88;100695.80;104877;1306;67557;-89
2023/12/10 03:43:52;;;;;;;13.90;10.90;;;;;;;24.23;19.70;100695.34;104960;1307;68815;-90
2023/12/10 03:46:26;;;;;;;12.40;10.60;;;;;;;24.23;19.74;100689.98;104887;1308;74356;-90
2023/12/10 03:48:54;;;;;;;10.90;9.80;;;;;;;24.23;19.92;100695.08;104866;1306;67689;-89
2023/12/10 03:51:20;;;;;;;11.60;10.40;;;;;;;24.23;19.79;100696.83;104892;1308;67713;-89
2023/12/10 03:53:47;;;;;;;12.30;10.40;;;;;;;24.23;19.76;100696.97;104688;1308;67113;-89
2023/12/10 03:56:14;;;;;;;11.00;9.80;;;;;;;24.23;19.79;100696.45;105068;1307;67707;-89
2023/12/10 03:58:40;;;;;;;11.80;10.50;;;;;;;24.24;19.84;100697.89;104741;1307;67135;-89
2023/12/10 04:01:08;;;;;;;11.40;10.30;;;;;;;24.24;19.69;100697.52;104995;1306;67721;-89
2023/12/10 04:03:35;;;;;;;13.20;11.00;;;;;;;24.25;19.70;100695.88;104679;1307;67595;-89
2023/12/10 04:06:02;;;;;;;11.50;10.20;;;;;;;24.25;19.70;100694.64;105061;1307;67726;-89
2023/12/10 04:08:31;;;;;;;11.60;10.40;;;;;;;24.25;19.76;100695.21;105084;1307;67996;-89
2023/12/10 04:13:46;;;;;;;11.70;9.80;;;;;;;24.24;19.79;100691.30;105051;1308;67773;-89
2023/12/10 04:19:05;;;;;;;11.80;10.70;;;;;;;24.24;19.75;100697.52;105040;1304;67575;-89
2023/12/10 04:21:34;;;;;;;13.10;10.20;;;;;;;24.25;19.66;100696.45;104716;1308;67027;-89
2023/12/10 04:24:25;;;;;;;11.60;10.40;;;;;;;24.24;19.86;100694.44;104866;1307;72168;-89
2023/12/10 04:30:06;;;;;;;10.60;9.50;;;;;;;24.24;19.74;100697.38;105072;1301;67656;-89
2023/12/10 04:38:24;;;;;;;11.20;10.00;;;;;;;24.24;19.80;100703.18;105045;1299;72356;-89
2023/12/10 04:41:17;;;;;;;11.10;9.90;;;;;;;24.24;19.79;100703.02;105105;1299;67693;-87
2023/12/10 04:43:48;;;;;;;11.10;9.80;;;;;;;24.24;19.79;100699.67;104995;1305;67713;-90
2023/12/10 04:46:39;;;;;;;11.40;10.20;;;;;;;24.25;19.70;100696.45;104896;1306;67127;-90
2023/12/10 04:49:09;;;;;;;11.10;10.00;;;;;;;24.24;19.70;100693.88;104903;1305;67480;-90
2023/12/10 04:51:40;;;;;;;11.20;10.00;;;;;;;24.24;19.73;100697.68;104921;1305;74559;-90
2023/12/10 04:54:08;;;;;;;11.20;9.60;;;;;;;24.25;19.59;100701.23;104907;1304;67107;-89
2023/12/10 04:56:38;;;;;;;10.20;9.20;;;;;;;24.25;19.70;100703.80;104867;1308;67433;-89
2023/12/10 05:05:03;;;;;;;10.20;9.00;;;;;;;24.25;19.81;100708.21;105200;1299;72929;31
2023/12/10 05:07:34;;;;;;;9.90;9.00;;;;;;;24.25;19.71;100707.39;104769;1308;67272;-89
2023/12/10 05:10:06;;;;;;;10.10;9.00;;;;;;;24.25;19.66;100712.92;104956;1304;67884;-90
2023/12/10 05:12:35;;;;;;;11.20;9.40;;;;;;;24.26;19.62;100720.60;105172;1301;67002;-89
2023/12/10 05:15:08;;;;;;;10.90;9.80;;;;;;;24.26;19.55;100722.35;104863;1308;67054;-89
2023/12/10 05:20:21;;;;;;;10.10;9.10;;;;;;;24.26;19.69;100724.35;105285;1307;67160;-88
2023/12/10 05:28:32;;;;;;;10.00;9.00;;;;;;;24.25;19.56;100720.15;105063;1308;67725;-89
2023/12/10 05:30:59;;;;;;;9.70;8.50;;;;;;;24.26;19.56;100717.10;104703;1308;74224;-89
2023/12/10 05:33:25;;;;;;;9.80;8.80;;;;;;;24.27;19.54;100713.50;104863;1307;68001;-89
2023/12/10 05:35:51;;;;;;;10.00;9.00;;;;;;;24.27;19.65;100714.21;104658;1307;67659;-89
2023/12/10 05:38:17;;;;;;;9.60;8.70;;;;;;;24.28;19.58;100716.16;104705;1304;68730;-89
2023/12/10 05:41:02;;;;;;;10.30;9.20;;;;;;;24.26;19.50;100716.73;104563;1299;67590;31
2023/12/10 05:43:28;;;;;;;9.90;8.90;;;;;;;24.27;19.39;100714.38;104790;1309;74568;-89
2023/12/10 05:45:54;;;;;;;10.30;9.30;;;;;;;24.27;19.38;100714.67;104675;1307;67839;-89
2023/12/10 05:48:20;;;;;;;9.50;8.60;;;;;;;24.28;19.44;100717.19;104481;1308;67173;-89
2023/12/10 05:50:46;;;;;;;10.10;9.10;;;;;;;24.28;19.44;100718.42;104562;1310;67601;-90
2023/12/10 05:53:15;;;;;;;9.90;8.90;;;;;;;24.28;19.48;100721.30;104560;1309;67608;-89
2023/12/10 05:55:49;;;;;;;9.50;8.60;;;;;;;24.28;19.55;100721.14;104683;1309;75133;31
2023/12/10 05:58:15;;;;;;;10.40;9.40;;;;;;;24.28;19.61;100715.64;104489;1308;67847;-89
2023/12/10 06:00:41;;;;;;;12.20;9.70;;;;;;;24.29;19.44;100713.06;104667;1308;67744;-89
2023/12/10 06:03:07;;;;;;;10.40;9.00;;;;;;;24.29;19.42;100712.23;104627;1308;67143;-89
2023/12/10 06:05:33;;;;;;;10.20;9.20;;;;;;;24.30;19.46;100709.50;104906;1306;67038;-88
2023/12/10 06:08:00;;;;;;;10.10;9.00;;;;;;;24.30;19.36;100701.73;104963;1302;67919;-88
2023/12/10 06:10:26;;;;;;;10.80;9.40;;;;;;;24.29;19.49;100696.30;104644;1308;66978;-88
2023/12/10 06:12:52;;;;;;;9.80;8.80;;;;;;;24.30;19.50;100701.43;104839;1308;66977;-89
2023/12/10 06:15:18;;;;;;;10.30;9.20;;;;;;;24.29;19.44;100705.36;105012;1305;67887;-89
2023/12/10 06:17:44;;;;;;;9.90;8.90;;;;;;;24.30;19.45;100705.85;104803;1309;74341;-89
2023/12/10 06:20:11;;;;;;;11.90;9.70;;;;;;;24.31;19.42;100705.64;104506;1307;67919;-89
2023/12/10 06:22:45;;;;;;;10.40;9.30;;;;;;;24.30;19.50;100706.88;104670;1299;67641;31
2023/12/10 06:25:11;;;;;;;11.10;9.80;;;;;;;24.30;19.49;100706.73;104956;1308;67644;-89
2023/12/10 06:27:37;;;;;;;11.10;9.50;;;;;;;24.31;19.39;100702.82;104841;1307;67196;-89
2023/12/10 06:30:03;;;;;;;10.70;9.60;;;;;;;24.32;19.39;100704.44;104597;1307;67663;-89
2023/12/10 06:32:29;;;;;;;10.50;9.40;;;;;;;24.31;19.50;100700.86;104847;1307;67897;-89
2023/12/10 06:34:55;;;;;;;11.10;10.00;;;;;;;24.32;19.49;100699.05;104593;1299;67155;-89
2023/12/10 06:37:21;;;;;;;10.50;9.40;;;;;;;24.31;19.36;100695.52;104557;1309;68101;-89
2023/12/10 06:39:47;;;;;;;9.80;8.80;;;;;;;24.31;19.43;100699.20;104772;1307;67792;-89
2023/12/10 06:44:53;;;;;;;;;;;;;;;24.31;19.42;100700.55;104996;1308;67739;-89
2023/12/10 06:47:19;;;;;;;11.30;9.90;;;;;;;24.28;19.36;100703.20;104769;1306;67955;-89
2023/12/10 06:49:45;;;;;;;11.30;10.10;;;;;;;24.28;19.41;100706.49;104805;1299;67519;-88
2023/12/10 06:52:11;;;;;;;12.30;10.30;;;;;;;24.30;19.50;100704.11;104666;1308;67752;-88
2023/12/10 06:54:38;;;;;;;11.50;10.40;;;;;;;24.29;19.52;100703.08;104799;1306;67183;-89
2023/12/10 06:57:04;;;;;;;11.50;10.40;;;;;;;24.30;19.44;100700.61;104684;1308;67896;-89
2023/12/10 06:59:30;;;;;;;11.00;9.90;;;;;;;24.30;19.52;100701.33;104713;1308;67953;-89
2023/12/10 07:01:59;;;;;;;11.60;10.40;;;;;;;24.31;19.47;100703.08;104670;1307;68564;-89
2023/12/10 07:04:43;;;;;;;11.70;10.40;;;;;;;24.31;19.54;100701.37;104888;1307;68137;31
2023/12/10 07:07:09;;;;;;;12.10;10.90;;;;;;;24.32;19.40;100706.70;104607;1308;72612;-89
2023/12/10 07:09:35;;;;;;;11.40;10.20;;;;;;;24.31;19.45;100711.59;104671;1307;67708;-88
2023/12/10 07:12:02;;;;;;;11.90;10.60;;;;;;;24.31;19.46;100709.65;104858;1307;67149;-88
2023/12/10 07:14:29;;;;;;;12.00;10.50;;;;;;;24.31;19.35;100714.17;104658;1308;67911;-89
2023/12/10 07:16:55;;;;;;;11.70;10.50;;;;;;;24.32;19.42;100715.35;104615;1308;67508;-89
2023/12/10 07:22:08;;;;;;;12.20;10.90;;;;;;;24.31;19.56;100733.70;104884;1308;67741;-90
2023/12/10 07:24:36;;;;;;;12.20;10.90;;;;;;;24.32;19.39;100739.67;104734;1307;67868;-89
2023/12/10 07:27:03;;;;;;;12.20;10.90;;;;;;;24.32;19.41;100744.55;104687;1307;67560;-89
2023/12/10 07:29:29;;;;;;;12.50;11.20;;;;;;;24.33;19.43;100739.50;104717;1307;74425;-89
2023/12/10 07:31:55;;;;;;;12.50;11.20;;;;;;;24.33;19.39;100736.52;104499;1308;67692;-89
2023/12/10 07:34:26;;;;;;;12.80;11.40;;;;;;;24.32;19.38;100730.55;104888;1299;68789;31
2023/12/10 07:36:52;;;;;;;12.40;11.20;;;;;;;24.32;19.35;100729.49;104522;1308;67731;-89
2023/12/10 07:39:18;;;;;;;11.20;10.10;;;;;;;24.32;19.41;100730.93;104781;1308;67847;-90
2023/12/10 07:41:45;;;;;;;12.60;11.10;;;;;;;24.32;19.56;100735.35;104600;1307;67168;-89
2023/12/10 07:44:11;;;;;;;12.00;10.80;;;;;;;24.32;19.33;100735.91;104798;1308;67706;-89
2023/12/10 07:46:37;;;;;;;11.70;10.50;;;;;;;24.33;19.34;100738.48;104834;1299;67793;-89
2023/12/10 07:49:03;;;;;;;12.00;10.70;;;;;;;24.33;19.49;100744.34;104897;1307;67920;-89
2023/12/10 07:51:28;;;;;;;11.60;10.40;;;;;;;24.34;19.58;100746.39;104856;1308;67962;-89
2023/12/10 07:53:55;;;;;;;11.90;10.60;;;;;;;24.33;19.42;100748.40;104703;1310;67773;-89
2023/12/10 07:56:24;;;;;;;11.40;10.20;;;;;;;24.34;19.42;100748.91;104777;1305;67031;-89
2023/12/10 07:58:50;;;;;;;11.90;10.60;;;;;;;24.34;19.24;100754.30;104953;1305;67048;-89
2023/12/10 08:01:22;;;;;;;11.50;10.40;;;;;;;24.34;19.49;100757.55;104893;1299;67812;31
2023/12/10 08:03:47;;;;;;;11.50;10.30;;;;;;;24.34;19.42;100752.19;104632;1310;74433;-89
2023/12/10 08:06:16;;;;;;;11.60;10.40;;;;;;;24.34;19.40;100753.48;104708;1307;67880;-88
2023/12/10 08:08:43;;;;;;;13.70;10.30;;;;;;;24.34;19.41;100760.73;104695;1308;67727;-88
2023/12/10 08:11:09;;;;;;;11.70;10.50;;;;;;;24.34;19.42;100762.68;104799;1302;67612;-89
2023/12/10 08:13:44;;;;;;;14.20;10.80;;;;;;;24.35;19.38;100765.45;104719;1307;67586;-89
2023/12/10 08:16:19;;;;;;;11.60;10.40;;;;;;;24.35;19.44;100769.41;104991;1307;75412;31
2023/12/10 08:18:44;;;;;;;13.70;10.30;;;;;;;24.34;19.43;100769.72;104510;1310;67837;-89
2023/12/10 08:21:10;;;;;;;14.50;10.80;;;;;;;24.34;19.42;100771.58;104697;1308;67781;-89
2023/12/10 08:23:38;;;;;;;11.40;10.20;;;;;;;24.34;19.41;100768.45;104660;1307;68064;-89
2023/12/10 08:26:07;;;;;;;11.20;10.10;;;;;;;24.34;19.48;100770.91;104859;1309;67033;-89
2023/12/10 08:28:34;;;;;;;12.30;10.60;;;;;;;24.34;19.45;100773.85;104871;1305;74246;-89
2023/12/10 08:43:14;;;;;;;11.40;10.20;;;;;;;24.31;19.34;100766.36;104871;1309;74494;-89
2023/12/10 08:45:40;;;;;;;12.50;10.10;;;;;;;24.32;19.48;100767.70;104951;1308;68934;-90
2023/12/10 08:48:09;;;;;;;11.40;10.30;;;;;;;24.33;19.18;100767.21;104910;1308;67586;-90
2023/12/10 08:53:18;;;;;;;11.40;10.20;;;;;;;24.34;19.25;100763.61;104927;1305;67023;-89
2023/12/10 08:55:44;;;;;;;11.30;10.00;;;;;;;24.33;19.37;100765.15;104697;1307;67177;-88
2023/12/10 08:58:15;;;;;;;11.80;10.60;;;;;;;24.34;19.28;100764.23;104894;1305;67696;-88
2023/12/10 09:00:41;;;;;;;11.70;10.40;;;;;;;24.34;19.20;100756.92;104609;1308;67092;-88
2023/12/10 09:03:10;;;;;;;11.80;10.60;;;;;;;24.35;19.41;100751.88;104726;1308;67847;-89
2023/12/10 09:05:37;;;;;;;11.60;10.40;;;;;;;24.35;19.25;100752.44;104794;1305;67672;-88
2023/12/10 09:08:03;;;;;;;11.20;10.00;;;;;;;24.35;19.26;100749.70;104708;1308;67722;-88
2023/12/10 09:10:29;;;;;;;12.00;10.70;;;;;;;24.36;19.18;100742.40;104620;1299;67875;-88
2023/12/10 09:16:06;;;;;;;11.30;10.10;;;;;;;24.35;19.27;100724.61;104853;1308;67554;-89
2023/12/10 09:18:33;;;;;;;10.60;9.50;;;;;;;24.35;19.24;100726.16;104869;1308;67622;-90
2023/12/10 09:21:02;;;;;;;11.30;10.10;;;;;;;24.35;19.17;100722.25;104936;1307;74613;-89
2023/12/10 09:26:17;;;;;;;11.80;10.30;;;;;;;24.36;19.44;100724.41;105009;1304;67755;-88
2023/12/10 09:31:27;;;;;;;12.00;10.50;;;;;;;24.36;19.13;100719.21;104878;1305;68165;-88
2023/12/10 09:36:38;;;;;;;10.60;9.50;;;;;;;24.36;19.27;100706.09;105040;1306;67543;-89
2023/12/10 09:39:04;;;;;;;11.50;10.30;;;;;;;24.37;19.25;100698.64;104714;1308;67808;-88
2023/12/10 09:41:30;;;;;;;13.20;11.00;;;;;;;24.37;19.23;100695.14;104972;1301;67657;-89
2023/12/10 09:43:56;;;;;;;11.20;10.10;;;;;;;24.37;19.21;100691.89;104455;1308;67872;-89
2023/12/10 09:46:25;;;;;;;12.10;10.00;;;;;;;24.37;19.12;100686.34;104720;1307;67277;-89
2023/12/10 09:49:14;;;;;;;11.50;10.30;;;;;;;24.37;19.14;100686.95;104844;1299;66998;31
2023/12/10 09:54:33;;;;;;;12.30;10.70;;;;;;;24.37;19.04;100681.55;105016;1305;67525;-89
2023/12/10 09:56:59;;;;;;;11.60;10.10;;;;;;;24.37;19.09;100682.95;104825;1306;67010;-89
2023/12/10 09:59:25;;;;;;;12.30;11.00;;;;;;;24.37;19.25;100683.25;104881;1308;67782;-89
2023/12/10 10:01:53;;;;;;;12.10;10.70;;;;;;;24.37;19.15;100686.80;104729;1308;67686;-89
2023/12/10 10:04:19;;;;;;;13.50;11.50;;;;;;;24.37;19.11;100684.54;104792;1307;67680;-90
2023/12/10 10:06:53;;;;;;;11.60;10.40;;;;;;;24.37;19.13;100682.42;104867;1299;67584;31
2023/12/10 10:09:20;;;;;;;12.30;11.10;;;;;;;24.37;19.14;100685.71;104729;1308;66991;-89
2023/12/10 10:11:50;;;;;;;12.80;11.50;;;;;;;24.37;19.10;100691.94;104650;1308;84897;-89
2023/12/10 10:14:18;;;;;;;12.60;11.30;;;;;;;24.37;19.08;100691.23;104662;1308;67173;-89
2023/12/10 10:16:50;;;;;;;12.30;11.00;;;;;;;24.37;19.06;100697.18;104804;1306;67561;-88
2023/12/10 10:19:17;;;;;;;12.50;11.00;;;;;;;24.38;19.11;100703.05;104747;1308;67721;-88
2023/12/10 10:24:35;;;;;;;11.10;10.00;;;;;;;24.37;19.11;100704.84;105064;1306;74610;-90
2023/12/10 10:28:10;;;;;;;12.80;11.30;;;;;;;24.37;19.13;100700.68;104970;1308;67184;-89
2023/12/10 10:31:04;;;;;;;13.10;11.00;;;;;;;24.37;19.17;100706.30;104755;1305;67170;31
2023/12/10 10:36:48;;;;;;;11.60;10.40;;;;;;;24.36;19.24;100703.16;105368;1299;66946;31
2023/12/10 10:39:16;;;;;;;12.60;10.70;;;;;;;24.37;19.34;100705.37;104934;1308;74464;-90
2023/12/10 10:41:42;;;;;;;13.70;11.60;;;;;;;24.38;19.26;100709.11;104961;1308;66983;-89
2023/12/10 10:44:08;;;;;;;12.60;11.00;;;;;;;24.38;19.20;100710.96;104822;1308;68519;-89
2023/12/10 10:49:26;;;;;;;12.10;10.90;;;;;;;24.37;19.17;100702.13;105320;1305;67047;-89
2023/12/10 10:51:53;;;;;;;12.80;11.40;;;;;;;24.38;19.17;100698.30;104854;1301;74546;-88
2023/12/10 10:54:20;;;;;;;11.80;10.60;;;;;;;24.39;19.25;100693.94;104845;1308;67030;-90
2023/12/10 10:56:47;;;;;;;11.80;10.60;;;;;;;24.39;19.23;100689.66;104839;1308;67270;-89
2023/12/10 11:02:11;;;;;;;12.10;10.50;;;;;;;24.38;19.16;100675.67;105343;1304;67038;-89
2023/12/10 11:04:54;;;;;;;11.70;10.50;;;;;;;24.39;19.12;100675.58;104897;1308;74218;-89
2023/12/10 11:07:46;;;;;;;11.70;10.60;;;;;;;24.39;19.20;100663.70;105325;1304;67039;-89
2023/12/10 11:10:49;;;;;;;11.90;10.70;;;;;;;24.38;19.05;100650.73;105075;1305;68148;-89
2023/12/10 11:16:08;;;;;;;12.60;11.30;;;;;;;24.38;19.03;100645.08;105113;1308;67010;-89
2023/12/10 11:21:45;;;;;;;11.50;10.30;;;;;;;24.36;19.29;100649.06;105234;1299;67787;31
2023/12/10 11:24:11;;;;;;;11.90;10.60;;;;;;;24.37;19.25;100650.14;104777;1308;67037;-90
2023/12/10 11:26:40;;;;;;;13.00;11.10;;;;;;;24.37;19.10;100657.13;104849;1308;67073;-89
2023/12/10 11:29:09;;;;;;;12.00;10.80;;;;;;;24.38;19.20;100657.80;104866;1303;74467;-89
2023/12/10 11:34:40;;;;;;;12.20;10.50;;;;;;;24.38;19.03;100651.15;105046;1303;67694;-90
2023/12/10 11:37:09;;;;;;;11.60;10.40;;;;;;;24.39;19.19;100648.42;105232;1302;67126;-88
2023/12/10 11:39:36;;;;;;;12.00;10.70;;;;;;;24.39;19.23;100651.45;105258;1299;68323;-89
2023/12/10 11:42:06;;;;;;;11.70;10.50;;;;;;;24.39;19.13;100648.92;104925;1309;67069;-89
2023/12/10 11:44:38;;;;;;;11.40;10.20;;;;;;;24.40;19.11;100648.41;104960;1308;75419;-88
2023/12/10 11:47:05;;;;;;;12.90;11.50;;;;;;;24.40;19.13;100648.56;105030;1307;67956;-88
2023/12/10 11:49:33;;;;;;;12.20;10.90;;;;;;;24.40;19.14;100648.66;104780;1307;67217;-88
2023/12/10 11:52:00;;;;;;;12.40;11.10;;;;;;;24.40;19.22;100649.70;104867;1307;67575;-89
2023/12/10 11:54:37;;;;;;;12.10;10.90;;;;;;;24.40;19.14;100644.18;104836;1299;67110;31
2023/12/10 11:57:06;;;;;;;12.70;11.10;;;;;;;24.40;19.20;100642.03;104708;1308;74669;-90
2023/12/10 11:59:37;;;;;;;12.50;10.30;;;;;;;24.40;19.13;100645.20;104935;1305;67738;-89
2023/12/10 12:02:05;;;;;;;11.60;10.40;;;;;;;24.40;19.07;100647.42;104681;1307;67723;-89
2023/12/10 12:04:32;;;;;;;12.30;10.70;;;;;;;24.41;19.16;100642.54;104649;1310;67643;-89
2023/12/10 12:06:58;;;;;;;12.00;10.70;;;;;;;24.41;19.16;100633.22;104636;1308;67676;-89
2023/12/10 12:09:30;;;;;;;11.40;10.30;;;;;;;24.41;19.20;100631.88;104773;1299;67666;31
2023/12/10 12:11:57;;;;;;;12.00;10.80;;;;;;;24.41;19.06;100634.14;104524;1308;67869;-89
2023/12/10 12:14:31;;;;;;;12.30;11.00;;;;;;;24.41;19.12;100632.90;105035;1303;67583;-89
2023/12/10 12:16:59;;;;;;;12.00;10.80;;;;;;;24.42;19.10;100633.62;104657;1307;67736;-90
2023/12/10 12:19:28;;;;;;;11.30;10.20;;;;;;;24.42;19.10;100640.00;104886;1307;67071;-89
2023/12/10 12:21:56;;;;;;;12.10;10.90;;;;;;;24.41;19.14;100631.56;104718;1307;74404;-89
2023/12/10 12:24:27;;;;;;;12.40;11.10;;;;;;;24.41;19.04;100623.80;104745;1299;66997;31
2023/12/10 12:26:52;;;;;;;;;;;;;;;24.42;19.16;100623.29;104677;1308;67851;-90
2023/12/10 12:29:19;;;;;;;12.10;10.80;;;;;;;24.39;19.09;100624.20;105177;1304;67653;-88
2023/12/10 12:31:45;;;;;;;11.40;10.20;;;;;;;24.39;19.16;100621.16;104761;1306;67630;-88
2023/12/10 12:34:11;;;;;;;13.40;10.80;;;;;;;24.40;19.04;100620.58;104904;1308;67760;-88
2023/12/10 12:36:38;;;;;;;11.90;10.70;;;;;;;24.40;19.05;100620.38;103714;1302;1552439;-89
2023/12/10 12:42:02;;;;;;;11.70;10.50;;;;;;;24.39;19.09;100614.83;104942;1308;67976;-89
2023/12/10 12:44:28;;;;;;;11.60;10.30;;;;;;;24.40;19.27;100613.89;104667;1308;67859;-89
2023/12/10 12:46:55;;;;;;;11.90;10.70;;;;;;;24.40;19.05;100616.83;104736;1308;67113;-89
2023/12/10 12:49:21;;;;;;;12.10;10.80;;;;;;;24.40;19.04;100616.20;104722;1308;67693;-89
2023/12/10 12:51:46;;;;;;;12.00;10.70;;;;;;;24.41;19.21;100615.54;104719;1308;67811;-89
2023/12/10 12:54:12;;;;;;;12.90;11.20;;;;;;;24.42;19.18;100617.06;104728;1308;67750;-89
2023/12/10 12:56:44;;;;;;;12.20;11.00;;;;;;;24.41;19.14;100618.55;104684;1310;67648;-89
2023/12/10 12:59:19;;;;;;;12.20;10.90;;;;;;;24.42;19.12;100621.89;104692;1310;82989;-89
2023/12/10 13:01:52;;;;;;;12.80;11.40;;;;;;;24.42;19.05;100623.60;104957;1308;67720;-88
2023/12/10 13:04:18;;;;;;;12.00;10.50;;;;;;;24.42;19.07;100623.33;104903;1308;67697;-88
2023/12/10 13:06:44;;;;;;;12.40;11.10;;;;;;;24.42;19.09;100622.77;104924;1308;67057;-91
2023/12/10 13:09:10;;;;;;;12.50;11.20;;;;;;;24.43;19.07;100620.29;104926;1308;67962;-89
2023/12/10 13:11:36;;;;;;;12.00;10.70;;;;;;;24.42;19.14;100620.86;104909;1308;67835;-88
2023/12/10 13:14:03;;;;;;;12.20;10.90;;;;;;;24.43;19.13;100621.73;104873;1306;67582;-89
2023/12/10 13:16:30;;;;;;;12.50;11.20;;;;;;;24.42;19.19;100618.14;104751;1308;67092;-88
2023/12/10 13:18:56;;;;;;;11.80;10.60;;;;;;;24.43;19.03;100623.06;104744;1308;67596;-88
2023/12/10 13:21:23;;;;;;;11.00;9.90;;;;;;;24.43;19.18;100622.80;104923;1309;66898;-89
2023/12/10 13:29:21;;;;;;;11.70;10.50;;;;;;;24.43;19.22;100621.84;105032;1308;67170;-89
2023/12/10 13:34:30;;;;;;;11.60;9.90;;;;;;;24.43;19.03;100622.85;104922;1307;67653;-89
2023/12/10 13:36:56;;;;;;;12.20;10.90;;;;;;;24.43;18.97;100627.27;104842;1308;68668;-88
2023/12/10 13:39:22;;;;;;;11.40;10.30;;;;;;;24.43;19.15;100630.98;104804;1302;67698;-89
2023/12/10 13:41:49;;;;;;;12.80;11.00;;;;;;;24.44;19.06;100633.64;104673;1307;67270;-90
2023/12/10 13:44:15;;;;;;;11.90;10.70;;;;;;;24.44;19.05;100632.77;104893;1308;67749;-89
2023/12/10 13:46:43;;;;;;;12.70;11.40;;;;;;;24.45;19.05;100639.05;104850;1306;67839;-89
2023/12/10 13:49:11;;;;;;;12.80;11.50;;;;;;;24.44;19.10;100643.52;104816;1307;75585;-89
2023/12/10 13:51:37;;;;;;;12.20;10.80;;;;;;;24.44;19.11;100645.23;104655;1308;68120;-88
2023/12/10 13:54:08;;;;;;;12.20;10.90;;;;;;;24.44;19.02;100644.96;104680;1307;67108;31
2023/12/10 13:56:34;;;;;;;;;;;;;;;24.45;19.15;100645.27;104516;1311;67634;-89
2023/12/10 13:59:03;;;;;;;13.20;10.50;;;;;;;24.42;19.12;100645.82;104686;1308;67986;-89
2023/12/10 14:04:14;;;;;;;11.50;10.20;;;;;;;24.42;18.95;100646.27;105000;1305;68097;-89
2023/12/10 14:06:40;;;;;;;12.10;10.90;;;;;;;24.43;18.97;100649.41;104656;1311;67608;-89
2023/12/10 14:09:06;;;;;;;13.40;11.40;;;;;;;24.44;19.03;100650.93;104683;1299;68080;-86
2023/12/10 14:11:33;;;;;;;12.20;10.70;;;;;;;24.43;18.91;100652.07;104870;1308;67679;-90
2023/12/10 14:14:01;;;;;;;12.10;10.90;;;;;;;24.44;19.08;100655.45;104669;1307;67989;-89
2023/12/10 14:16:46;;;;;;;12.90;11.30;;;;;;;24.44;18.98;100653.09;104857;1308;68449;-88